Time;durP1;ratioP1;P1;durP2;ratioP2;P2;SDS_P1;SDS_P2;PMS_P1;PMS_P2;Temp;Humidity;BMP_temperature;BMP_pressure;BME280_temperature;BME280_humidity;BME280_pressure;Samples;Min_cycle;Max_cycle;Signal;HPM_P1;HPM_P2
2023/10/17 00:00:28;;;;;;;15.13;7.20;;;;;;;;;;4931837;29;20159;-68
2023/10/17 00:03:14;;;;;;;15.60;7.55;;;;;;;;;;4925695;29;20056;-69
2023/10/17 00:05:41;;;;;;;10.95;6.68;;;;;;;;;;4931842;29;20215;-68
2023/10/17 00:08:09;;;;;;;14.13;6.88;;;;;;;;;;4920712;29;20052;-67
2023/10/17 00:10:45;;;;;;;13.88;6.90;;;;;;;;;;4924773;29;20508;-68
2023/10/17 00:13:23;;;;;;;13.70;6.63;;;;;;;;;;4923497;29;20115;-65
2023/10/17 00:15:49;;;;;;;14.20;7.10;;;;;;;;;;4922451;29;20520;-67
2023/10/17 00:18:17;;;;;;;16.33;6.97;;;;;;;;;;4922477;29;20056;-69
2023/10/17 00:20:44;;;;;;;14.60;6.78;;;;;;;;;;4923813;29;20071;-67
2023/10/17 00:23:20;;;;;;;14.77;6.65;;;;;;;;;;4921678;29;20035;-69
2023/10/17 00:25:49;;;;;;;12.60;7.20;;;;;;;;;;4908241;29;20060;-69
2023/10/17 00:28:20;;;;;;;15.88;7.32;;;;;;;;;;4903986;29;20084;-69
2023/10/17 00:30:48;;;;;;;15.93;7.63;;;;;;;;;;4927854;29;20075;-66
2023/10/17 00:33:20;;;;;;;13.35;6.95;;;;;;;;;;4934370;29;20048;-69
2023/10/17 00:35:49;;;;;;;12.70;7.20;;;;;;;;;;4932203;29;20484;-68
2023/10/17 00:38:15;;;;;;;16.50;7.47;;;;;;;;;;4932196;29;20419;-67
2023/10/17 00:43:14;;;;;;;16.70;8.00;;;;;;;;;;4936084;29;20058;-66
2023/10/17 00:45:41;;;;;;;16.38;7.50;;;;;;;;;;4936009;29;20576;-66
2023/10/17 00:48:08;;;;;;;14.30;7.03;;;;;;;;;;4925855;29;20044;-68
2023/10/17 00:50:38;;;;;;;13.77;7.38;;;;;;;;;;4930905;29;20118;-67
2023/10/17 00:53:06;;;;;;;19.77;7.60;;;;;;;;;;4933236;29;20048;-66
2023/10/17 00:55:35;;;;;;;14.90;7.80;;;;;;;;;;4925996;29;20123;-67
2023/10/17 00:58:02;;;;;;;18.48;8.00;;;;;;;;;;4929133;29;20055;-66
2023/10/17 01:00:37;;;;;;;14.13;7.68;;;;;;;;;;4933975;29;20059;-69
2023/10/17 01:03:10;;;;;;;15.80;7.63;;;;;;;;;;4922734;29;20052;-66
2023/10/17 01:05:57;;;;;;;15.50;7.97;;;;;;;;;;4933994;29;20143;-67
2023/10/17 01:09:17;;;;;;;22.73;8.48;;;;;;;;;;4929959;29;20052;-68
2023/10/17 01:12:01;;;;;;;13.95;8.25;;;;;;;;;;4914824;29;20047;-66
2023/10/17 01:14:04;;;;;;;17.40;8.10;;;;;;;;;;4909558;29;20118;-66
2023/10/17 01:16:36;;;;;;;14.80;8.07;;;;;;;;;;4923999;29;20131;-66
2023/10/17 01:19:05;;;;;;;16.80;8.35;;;;;;;;;;4936520;29;20126;-67
2023/10/17 01:21:31;;;;;;;15.93;8.32;;;;;;;;;;4930251;29;20118;-68
2023/10/17 01:23:57;;;;;;;17.67;8.52;;;;;;;;;;4931595;29;20067;-66
2023/10/17 01:26:24;;;;;;;15.35;7.80;;;;;;;;;;4926803;29;20079;-67
2023/10/17 01:28:51;;;;;;;14.60;8.40;;;;;;;;;;4940907;29;20055;-69
2023/10/17 01:31:24;;;;;;;15.30;8.48;;;;;;;;;;4909335;29;20044;-68
2023/10/17 01:33:54;;;;;;;16.65;7.97;;;;;;;;;;4929267;29;20047;-67
2023/10/17 01:36:21;;;;;;;18.05;8.43;;;;;;;;;;4926769;29;20055;-66
2023/10/17 01:38:49;;;;;;;16.92;8.48;;;;;;;;;;4927706;29;20139;-67
2023/10/17 01:41:19;;;;;;;18.35;8.65;;;;;;;;;;4926102;29;20072;-68
2023/10/17 01:43:46;;;;;;;17.40;8.18;;;;;;;;;;4929294;29;20062;-68
2023/10/17 01:46:21;;;;;;;16.42;8.32;;;;;;;;;;4918328;29;20074;-67
2023/10/17 01:48:49;;;;;;;17.98;9.30;;;;;;;;;;4914482;29;20138;-65
2023/10/17 01:51:16;;;;;;;16.70;8.77;;;;;;;;;;4924656;29;20040;-67
2023/10/17 01:53:48;;;;;;;16.73;9.07;;;;;;;;;;4928974;29;20048;-68
2023/10/17 01:56:18;;;;;;;17.23;9.52;;;;;;;;;;4927991;29;20075;-67
2023/10/17 01:58:48;;;;;;;17.00;8.68;;;;;;;;;;4927755;29;20496;-67
2023/10/17 02:01:17;;;;;;;16.42;8.82;;;;;;;;;;4924355;29;20286;-66
2023/10/17 02:03:44;;;;;;;18.00;9.55;;;;;;;;;;4920242;29;20147;-69
2023/10/17 02:06:15;;;;;;;19.15;9.20;;;;;;;;;;4928082;29;20119;-67
2023/10/17 02:08:43;;;;;;;18.77;9.10;;;;;;;;;;4927183;29;20048;-67
2023/10/17 02:11:24;;;;;;;18.98;9.52;;;;;;;;;;4906157;29;20477;-66
2023/10/17 02:13:57;;;;;;;18.45;9.50;;;;;;;;;;4921107;29;20079;-67
2023/10/17 02:16:32;;;;;;;18.67;10.07;;;;;;;;;;4926741;29;20039;-66
2023/10/17 02:19:00;;;;;;;21.13;9.50;;;;;;;;;;4922149;29;20399;-67
2023/10/17 02:21:27;;;;;;;19.98;9.50;;;;;;;;;;4920696;29;20104;-66
2023/10/17 02:23:54;;;;;;;16.48;9.68;;;;;;;;;;4921160;29;20056;-67
2023/10/17 02:26:22;;;;;;;19.92;9.50;;;;;;;;;;4933022;29;20055;-67
2023/10/17 02:28:53;;;;;;;20.98;9.27;;;;;;;;;;4931083;29;20054;-65
2023/10/17 02:31:27;;;;;;;20.13;9.55;;;;;;;;;;4930526;29;20051;-66
2023/10/17 02:33:56;;;;;;;19.02;10.32;;;;;;;;;;4924643;29;20048;-66
2023/10/17 02:36:23;;;;;;;18.17;9.27;;;;;;;;;;4929130;29;20087;-68
2023/10/17 02:38:50;;;;;;;16.90;9.35;;;;;;;;;;4925878;29;20133;-66
2023/10/17 02:41:19;;;;;;;19.10;9.02;;;;;;;;;;4932166;29;20423;-65
2023/10/17 02:43:54;;;;;;;19.27;9.60;;;;;;;;;;4936145;29;20051;-67
2023/10/17 02:46:26;;;;;;;22.00;9.55;;;;;;;;;;4932159;29;20052;-66
2023/10/17 02:48:56;;;;;;;18.13;9.15;;;;;;;;;;4932410;29;20459;-66
2023/10/17 02:53:58;;;;;;;18.48;10.10;;;;;;;;;;4928968;29;20067;-69
2023/10/17 02:56:26;;;;;;;19.65;9.68;;;;;;;;;;4928776;29;20517;-67
2023/10/17 03:01:30;;;;;;;18.63;10.10;;;;;;;;;;4941138;29;20056;-67
2023/10/17 03:03:57;;;;;;;18.75;9.88;;;;;;;;;;4931190;29;20044;-67
2023/10/17 03:06:23;;;;;;;15.18;9.40;;;;;;;;;;4926661;29;20066;-65
2023/10/17 03:08:51;;;;;;;21.08;10.38;;;;;;;;;;4923679;29;20051;-68
2023/10/17 03:11:35;;;;;;;22.75;10.00;;;;;;;;;;4924405;29;20527;-65
2023/10/17 03:14:19;;;;;;;18.38;9.90;;;;;;;;;;4931668;29;20541;-66
2023/10/17 03:16:53;;;;;;;18.20;9.50;;;;;;;;;;4926743;29;20492;-68
2023/10/17 03:19:27;;;;;;;16.95;9.27;;;;;;;;;;4930707;29;20082;-67
2023/10/17 03:21:55;;;;;;;17.58;9.55;;;;;;;;;;4922862;29;20067;-68
2023/10/17 03:27:34;;;;;;;13.95;8.40;;;;;;;;;;4894496;29;20127;-66
2023/10/17 03:30:14;;;;;;;13.27;8.38;;;;;;;;;;4927670;29;20137;-66
2023/10/17 03:32:53;;;;;;;17.90;9.48;;;;;;;;;;4928397;29;20060;-67
2023/10/17 03:35:22;;;;;;;18.08;8.35;;;;;;;;;;4926273;29;20059;-66
2023/10/17 03:37:50;;;;;;;18.75;8.98;;;;;;;;;;4925059;29;20047;-66
2023/10/17 03:40:27;;;;;;;19.27;8.45;;;;;;;;;;4929385;29;20044;-67
2023/10/17 03:42:53;;;;;;;13.70;8.27;;;;;;;;;;4927725;29;20455;-67
2023/10/17 03:45:26;;;;;;;14.65;8.50;;;;;;;;;;4910195;29;20055;-64
2023/10/17 03:47:54;;;;;;;17.80;8.73;;;;;;;;;;4927676;29;20044;-67
2023/10/17 03:53:15;;;;;;;19.55;8.50;;;;;;;;;;4928349;29;20055;-66
2023/10/17 03:55:43;;;;;;;16.08;8.65;;;;;;;;;;4928085;29;20043;-66
2023/10/17 03:58:24;;;;;;;16.60;8.50;;;;;;;;;;4929733;29;20051;-66
2023/10/17 04:00:52;;;;;;;17.98;7.43;;;;;;;;;;4931697;29;20066;-67
2023/10/17 04:03:21;;;;;;;22.83;8.82;;;;;;;;;;4912605;29;20149;-66
2023/10/17 04:08:31;;;;;;;14.43;8.43;;;;;;;;;;4931077;29;20051;-67
2023/10/17 04:13:43;;;;;;;16.33;8.20;;;;;;;;;;4926839;29;20066;-67
2023/10/17 04:16:10;;;;;;;13.27;8.00;;;;;;;;;;4923883;29;20679;-68
2023/10/17 04:18:39;;;;;;;18.10;8.30;;;;;;;;;;4932249;29;20056;-67
2023/10/17 04:24:09;;;;;;;17.30;8.07;;;;;;;;;;4915997;29;20078;-67
2023/10/17 04:26:44;;;;;;;16.92;8.38;;;;;;;;;;4930966;29;20058;-68
2023/10/17 04:29:18;;;;;;;16.65;8.45;;;;;;;;;;4932371;29;20138;-67
2023/10/17 04:31:47;;;;;;;16.67;8.10;;;;;;;;;;4929109;29;20099;-67
2023/10/17 04:34:21;;;;;;;16.48;8.30;;;;;;;;;;4911257;29;20602;-68
2023/10/17 04:36:51;;;;;;;18.27;8.68;;;;;;;;;;4924344;29;20059;-67
2023/10/17 04:44:50;;;;;;;15.50;8.40;;;;;;;;;;4932429;29;20051;-69
2023/10/17 04:48:35;;;;;;;17.67;8.13;;;;;;;;;;4930079;29;20512;-65
2023/10/17 04:52:19;;;;;;;17.50;8.32;;;;;;;;;;4923101;29;20054;-67
2023/10/17 04:56:52;;;;;;;16.08;7.85;;;;;;;;;;4927521;29;20481;-66
2023/10/17 04:59:51;;;;;;;15.80;8.20;;;;;;;;;;4929853;29;20142;-65
2023/10/17 06:19:34;;;;;;;21.05;7.30;;;;;;;;;;4925202;29;20126;-64
2023/10/17 06:24:05;;;;;;;16.38;7.03;;;;;;;;;;4925899;29;20039;-65
2023/10/17 06:28:20;;;;;;;13.15;7.15;;;;;;;;;;4923949;29;20103;-66
2023/10/17 06:34:26;;;;;;;17.00;7.03;;;;;;;;;;4920753;29;20055;-69
2023/10/17 06:38:15;;;;;;;12.70;6.88;;;;;;;;;;4919915;29;20075;-68
2023/10/17 06:42:09;;;;;;;20.25;6.72;;;;;;;;;;4916407;29;20170;-68
2023/10/17 06:45:08;;;;;;;19.80;6.53;;;;;;;;;;4915197;29;20525;-75
2023/10/17 06:47:47;;;;;;;20.50;7.03;;;;;;;;;;4922647;29;20290;-73
2023/10/17 06:54:41;;;;;;;27.95;7.80;;;;;;;;;;4920147;29;20468;-75
2023/10/17 06:58:21;;;;;;;13.25;7.78;;;;;;;;;;4936775;29;20043;-75
2023/10/17 07:02:18;;;;;;;17.30;6.70;;;;;;;;;;4927724;29;20058;-72
2023/10/17 07:05:55;;;;;;;22.40;7.47;;;;;;;;;;4919523;29;20048;-72
2023/10/17 07:09:18;;;;;;;18.02;7.28;;;;;;;;;;4925722;29;20055;-74
2023/10/17 07:12:53;;;;;;;15.57;7.38;;;;;;;;;;4930118;29;20047;-75
2023/10/17 07:16:48;;;;;;;34.38;7.50;;;;;;;;;;4934151;29;20503;-75
2023/10/17 07:24:13;;;;;;;14.95;7.50;;;;;;;;;;4924787;29;20135;-75
2023/10/17 07:27:53;;;;;;;15.88;6.90;;;;;;;;;;4933755;29;20113;-75
2023/10/17 07:31:34;;;;;;;14.65;7.45;;;;;;;;;;4930485;29;20075;-76
2023/10/17 07:35:23;;;;;;;12.77;6.78;;;;;;;;;;4927381;29;20058;-75
2023/10/17 07:38:57;;;;;;;27.65;7.97;;;;;;;;;;4932144;29;20051;-77
2023/10/17 07:42:40;;;;;;;19.77;6.75;;;;;;;;;;4927052;29;20054;-74
2023/10/17 07:46:26;;;;;;;26.83;7.80;;;;;;;;;;4930399;29;20500;-76
2023/10/17 07:50:03;;;;;;;16.35;5.93;;;;;;;;;;4936653;29;20047;-75
2023/10/17 07:53:47;;;;;;;19.80;6.50;;;;;;;;;;4923056;29;20044;-74
2023/10/17 07:57:24;;;;;;;21.02;6.63;;;;;;;;;;4931407;29;20078;-75
2023/10/17 08:01:14;;;;;;;18.80;6.68;;;;;;;;;;4925279;29;20126;-76
2023/10/17 08:04:48;;;;;;;15.68;5.72;;;;;;;;;;4933170;29;20135;-74
2023/10/17 08:08:33;;;;;;;15.75;6.15;;;;;;;;;;4939878;29;20063;-74
2023/10/17 08:12:15;;;;;;;15.73;6.40;;;;;;;;;;4927744;29;20062;-75
2023/10/17 08:15:53;;;;;;;15.13;6.03;;;;;;;;;;4925496;29;20102;-75
2023/10/17 08:23:19;;;;;;;13.55;6.07;;;;;;;;;;4841335;29;20491;-75
2023/10/17 08:30:38;;;;;;;19.33;6.70;;;;;;;;;;4853026;29;20084;-78
2023/10/17 08:34:19;;;;;;;15.60;7.00;;;;;;;;;;4864177;29;20556;-75
2023/10/17 08:38:03;;;;;;;17.88;6.70;;;;;;;;;;4853233;29;20575;-75
2023/10/17 08:41:44;;;;;;;15.38;6.20;;;;;;;;;;4850605;29;20116;-77
2023/10/17 08:45:26;;;;;;;23.90;7.03;;;;;;;;;;4854381;29;20057;-73
2023/10/17 08:49:10;;;;;;;17.05;7.80;;;;;;;;;;4852133;29;20044;-73
2023/10/17 08:52:48;;;;;;;18.30;6.90;;;;;;;;;;4849106;29;20145;-74
2023/10/17 08:56:29;;;;;;;27.48;7.68;;;;;;;;;;4844357;29;20133;-73
2023/10/17 09:03:41;;;;;;;19.08;7.55;;;;;;;;;;4937287;29;20384;-75
2023/10/17 09:06:59;;;;;;;;;;;;;;;;;;4930891;29;20047;-72
2023/10/17 09:10:41;;;;;;;22.85;7.88;;;;;;;;;;4931750;29;20063;-74
2023/10/17 09:14:29;;;;;;;20.35;7.82;;;;;;;;;;4927397;29;20104;-74
2023/10/17 09:18:07;;;;;;;18.42;7.88;;;;;;;;;;4935402;29;20077;-75
2023/10/17 09:21:46;;;;;;;15.40;7.63;;;;;;;;;;4931502;29;20137;-74
2023/10/17 09:25:35;;;;;;;22.42;7.47;;;;;;;;;;4930723;29;20118;-75
2023/10/17 09:28:37;;;;;;;23.13;8.25;;;;;;;;;;4932187;29;20075;-74
2023/10/17 09:31:06;;;;;;;25.85;8.07;;;;;;;;;;4932648;29;20067;-75
2023/10/17 09:33:34;;;;;;;21.10;8.27;;;;;;;;;;4923908;29;20396;-76
2023/10/17 09:36:04;;;;;;;14.85;7.07;;;;;;;;;;4935283;29;20063;-76
2023/10/17 09:38:34;;;;;;;15.20;7.13;;;;;;;;;;4938186;29;20039;-75
2023/10/17 09:41:03;;;;;;;16.15;6.90;;;;;;;;;;4919539;29;20318;-75
2023/10/17 09:43:30;;;;;;;19.75;7.30;;;;;;;;;;4920004;29;20075;-77
2023/10/17 09:46:06;;;;;;;16.75;7.43;;;;;;;;;;4942253;29;20605;-74
2023/10/17 09:48:46;;;;;;;19.00;7.00;;;;;;;;;;4932741;29;20101;-75
2023/10/17 09:51:22;;;;;;;20.35;6.60;;;;;;;;;;4932505;29;20461;-75
2023/10/17 09:53:53;;;;;;;22.58;8.18;;;;;;;;;;4916556;29;20589;-74
2023/10/17 09:56:36;;;;;;;14.00;6.05;;;;;;;;;;4918361;29;20050;-75
2023/10/17 09:59:17;;;;;;;15.23;6.45;;;;;;;;;;4939226;29;20112;-74
2023/10/17 10:01:49;;;;;;;14.52;5.78;;;;;;;;;;4934335;29;20052;-75
2023/10/17 10:04:19;;;;;;;20.48;6.38;;;;;;;;;;4939893;28;20050;-76
2023/10/17 10:06:47;;;;;;;14.20;6.07;;;;;;;;;;4932609;29;20063;-74
2023/10/17 10:09:14;;;;;;;15.93;6.43;;;;;;;;;;4938319;29;20066;-74
2023/10/17 10:11:48;;;;;;;18.20;6.28;;;;;;;;;;4932383;29;20052;-74
2023/10/17 10:14:40;;;;;;;19.85;6.43;;;;;;;;;;4930491;29;20127;-73
2023/10/17 10:17:09;;;;;;;14.98;5.40;;;;;;;;;;4934121;29;20287;-73
2023/10/17 10:19:42;;;;;;;12.90;5.20;;;;;;;;;;4916000;29;20062;-76
2023/10/17 10:22:15;;;;;;;16.70;6.10;;;;;;;;;;4932058;29;20035;-77
2023/10/17 10:24:42;;;;;;;15.75;5.45;;;;;;;;;;4929381;29;20175;-74
2023/10/17 10:27:15;;;;;;;18.80;5.85;;;;;;;;;;4931999;29;20047;-75
2023/10/17 10:29:57;;;;;;;18.75;5.90;;;;;;;;;;4934873;29;20411;-73
2023/10/17 10:32:35;;;;;;;18.02;6.05;;;;;;;;;;4943177;29;20047;-74
2023/10/17 10:35:04;;;;;;;16.98;6.43;;;;;;;;;;4934352;29;20142;-74
2023/10/17 10:37:49;;;;;;;15.45;5.95;;;;;;;;;;4927909;29;20098;-76
2023/10/17 10:40:22;;;;;;;12.82;5.70;;;;;;;;;;4931409;29;20079;-73
2023/10/17 10:42:51;;;;;;;16.17;5.97;;;;;;;;;;4927142;29;21825;-75
2023/10/17 10:45:40;;;;;;;15.23;5.00;;;;;;;;;;4913517;29;20290;-77
2023/10/17 10:48:17;;;;;;;20.92;5.85;;;;;;;;;;4906179;29;20048;-77
2023/10/17 10:50:47;;;;;;;17.50;5.78;;;;;;;;;;4914453;29;20071;-76
2023/10/17 10:53:23;;;;;;;15.60;5.75;;;;;;;;;;4937230;29;20075;-77
2023/10/17 10:56:04;;;;;;;14.63;5.38;;;;;;;;;;4937843;29;20384;-75
2023/10/17 10:58:36;;;;;;;19.25;6.28;;;;;;;;;;4932329;29;20054;-75
2023/10/17 11:01:07;;;;;;;17.30;5.70;;;;;;;;;;4930593;29;20131;-75
2023/10/17 11:03:44;;;;;;;13.57;5.35;;;;;;;;;;4938652;29;20051;-74
2023/10/17 11:06:12;;;;;;;19.50;5.38;;;;;;;;;;4939689;29;20051;-76
2023/10/17 11:08:46;;;;;;;12.13;6.20;;;;;;;;;;4940599;29;20047;-75
2023/10/17 11:11:14;;;;;;;15.88;5.93;;;;;;;;;;4930745;29;20189;-76
2023/10/17 11:13:48;;;;;;;14.05;6.15;;;;;;;;;;4920754;29;20241;-75
2023/10/17 11:16:20;;;;;;;20.10;6.22;;;;;;;;;;4924922;29;20071;-75
2023/10/17 11:18:52;;;;;;;14.10;6.22;;;;;;;;;;4914683;29;20055;-75
2023/10/17 11:21:22;;;;;;;14.50;6.88;;;;;;;;;;4939632;29;20159;-75
2023/10/17 11:23:59;;;;;;;15.48;6.22;;;;;;;;;;4912838;29;20138;-75
2023/10/17 11:26:31;;;;;;;12.00;6.07;;;;;;;;;;4926783;29;20070;-76
2023/10/17 11:29:05;;;;;;;19.95;5.95;;;;;;;;;;4928607;29;20047;-77
2023/10/17 11:31:33;;;;;;;14.73;6.05;;;;;;;;;;4924875;29;20115;-74
2023/10/17 11:34:07;;;;;;;23.67;8.60;;;;;;;;;;4926216;29;20062;-76
2023/10/17 11:37:02;;;;;;;18.45;6.65;;;;;;;;;;4927021;29;20060;-75
2023/10/17 11:39:41;;;;;;;11.65;5.10;;;;;;;;;;4899879;29;20051;-74
2023/10/17 11:42:07;;;;;;;20.10;6.35;;;;;;;;;;4932283;29;20052;-74
2023/10/17 11:44:42;;;;;;;14.60;6.00;;;;;;;;;;4932391;29;20051;-76
2023/10/17 11:47:22;;;;;;;15.18;6.10;;;;;;;;;;4930165;29;20111;-75
2023/10/17 11:49:49;;;;;;;15.60;6.05;;;;;;;;;;4931513;29;20055;-78
2023/10/17 11:52:15;;;;;;;16.75;6.60;;;;;;;;;;4932400;29;20150;-78
2023/10/17 11:55:04;;;;;;;18.83;5.72;;;;;;;;;;4912756;29;20039;-74
2023/10/17 11:57:31;;;;;;;16.98;6.28;;;;;;;;;;4922180;29;20090;-74
2023/10/17 12:02:42;;;;;;;19.10;5.95;;;;;;;;;;4927790;29;20091;-75
2023/10/17 12:05:21;;;;;;;15.68;5.93;;;;;;;;;;4909371;29;20236;-75
2023/10/17 12:07:49;;;;;;;19.60;5.72;;;;;;;;;;4917191;29;20056;-74
2023/10/17 12:10:16;;;;;;;14.73;5.50;;;;;;;;;;4924244;29;20476;-75
2023/10/17 12:12:44;;;;;;;11.13;5.72;;;;;;;;;;4936157;29;20079;-74
2023/10/17 12:15:14;;;;;;;15.02;5.97;;;;;;;;;;4923756;29;20055;-74
2023/10/17 12:17:40;;;;;;;11.10;5.63;;;;;;;;;;4935545;29;20051;-77
2023/10/17 12:20:13;;;;;;;17.85;6.32;;;;;;;;;;4911718;29;20063;-75
2023/10/17 12:22:40;;;;;;;16.23;6.05;;;;;;;;;;4914676;29;20480;-75
2023/10/17 12:25:10;;;;;;;14.80;6.05;;;;;;;;;;4900645;29;20052;-73
2023/10/17 12:27:39;;;;;;;14.25;6.55;;;;;;;;;;4915213;29;20174;-76
2023/10/17 12:30:11;;;;;;;11.57;5.97;;;;;;;;;;4922530;29;20047;-76
2023/10/17 12:32:36;;;;;;;13.48;5.65;;;;;;;;;;4906624;29;20067;-77
2023/10/17 12:35:05;;;;;;;16.85;6.60;;;;;;;;;;4918708;29;20047;-76
2023/10/17 12:37:43;;;;;;;14.85;6.10;;;;;;;;;;4934490;29;20560;-75
2023/10/17 12:40:21;;;;;;;15.70;6.43;;;;;;;;;;4921271;29;20047;-75
2023/10/17 12:42:50;;;;;;;12.05;5.70;;;;;;;;;;4932878;29;20059;-76
2023/10/17 12:45:19;;;;;;;12.27;5.50;;;;;;;;;;4933464;29;20339;-74
2023/10/17 12:47:48;;;;;;;12.98;5.80;;;;;;;;;;4931943;29;20052;-76
2023/10/17 12:50:19;;;;;;;10.15;5.63;;;;;;;;;;4933677;29;20052;-76
2023/10/17 12:52:45;;;;;;;10.40;4.97;;;;;;;;;;4916044;29;20135;-77
2023/10/17 12:55:14;;;;;;;14.60;5.18;;;;;;;;;;4905257;29;20115;-77
2023/10/17 12:57:40;;;;;;;9.55;4.78;;;;;;;;;;4949744;29;20079;-77
2023/10/17 13:00:14;;;;;;;12.88;4.95;;;;;;;;;;4934644;29;20075;-75
2023/10/17 13:02:47;;;;;;;13.27;5.80;;;;;;;;;;4923426;29;20078;-76
2023/10/17 13:05:16;;;;;;;13.02;5.50;;;;;;;;;;4917528;29;20055;-75
2023/10/17 13:07:43;;;;;;;14.95;6.10;;;;;;;;;;4927455;29;20070;-74
2023/10/17 13:10:12;;;;;;;8.52;5.00;;;;;;;;;;4929126;29;20204;-76
2023/10/17 13:12:42;;;;;;;16.92;5.45;;;;;;;;;;4917758;29;20067;-77
2023/10/17 13:15:14;;;;;;;12.43;5.25;;;;;;;;;;4932274;29;20051;-76
2023/10/17 13:17:43;;;;;;;11.43;4.55;;;;;;;;;;4936492;29;20054;-75
2023/10/17 13:20:13;;;;;;;11.73;4.30;;;;;;;;;;4918879;29;20075;-75
2023/10/17 13:22:47;;;;;;;10.65;4.05;;;;;;;;;;4933595;29;20046;-75
2023/10/17 13:25:18;;;;;;;12.55;4.45;;;;;;;;;;4934514;29;20057;-76
2023/10/17 13:27:45;;;;;;;13.20;4.65;;;;;;;;;;4916426;29;20420;-75
2023/10/17 13:30:11;;;;;;;10.15;4.60;;;;;;;;;;4922946;29;20195;-76
2023/10/17 13:32:38;;;;;;;11.73;4.32;;;;;;;;;;4924936;29;20062;-77
2023/10/17 13:35:06;;;;;;;8.75;4.07;;;;;;;;;;4915924;29;20111;-73
2023/10/17 13:37:35;;;;;;;13.68;4.50;;;;;;;;;;4930800;29;20044;-75
2023/10/17 13:40:41;;;;;;;10.85;4.88;;;;;;;;;;4943219;29;20134;-74
2023/10/17 13:44:21;;;;;;;10.63;4.40;;;;;;;;;;4933514;29;20104;-76
2023/10/17 13:48:01;;;;;;;11.15;3.90;;;;;;;;;;4931760;29;20130;-76
2023/10/17 13:51:46;;;;;;;13.88;4.85;;;;;;;;;;4928089;29;20055;-79
2023/10/17 13:55:25;;;;;;;12.27;4.75;;;;;;;;;;4933550;29;20130;-77
2023/10/17 13:59:09;;;;;;;14.13;5.15;;;;;;;;;;4931598;29;20050;-75
2023/10/17 14:02:47;;;;;;;18.15;5.18;;;;;;;;;;4932318;29;20054;-76
2023/10/17 14:06:38;;;;;;;12.15;5.03;;;;;;;;;;4928719;29;20083;-74
2023/10/17 14:10:09;;;;;;;14.70;6.25;;;;;;;;;;4928666;29;20134;-76
2023/10/17 14:13:49;;;;;;;10.98;5.43;;;;;;;;;;4928097;29;20050;-76
2023/10/17 14:17:30;;;;;;;15.02;8.18;;;;;;;;;;4923352;29;20059;-74
2023/10/17 14:28:13;;;;;;;12.23;6.00;;;;;;;;;;4931485;29;20047;-76
2023/10/17 14:31:54;;;;;;;11.63;5.68;;;;;;;;;;4921099;29;20061;-75
2023/10/17 14:35:35;;;;;;;11.95;5.82;;;;;;;;;;4926343;29;20051;-74
2023/10/17 14:39:20;;;;;;;15.45;6.20;;;;;;;;;;4926678;29;20078;-72
2023/10/17 14:42:59;;;;;;;13.48;6.38;;;;;;;;;;4925738;29;20123;-74
2023/10/17 14:46:41;;;;;;;15.70;5.65;;;;;;;;;;4931033;29;20567;-73
2023/10/17 14:49:58;;;;;;;12.55;5.88;;;;;;;;;;4931088;29;20040;-77
2023/10/17 14:52:24;;;;;;;12.60;5.82;;;;;;;;;;4914301;29;20033;-71
2023/10/17 14:54:50;;;;;;;11.43;5.40;;;;;;;;;;4920979;29;20046;-72
2023/10/17 14:57:16;;;;;;;12.52;5.70;;;;;;;;;;4929504;29;20039;-71
2023/10/17 14:59:44;;;;;;;13.40;6.15;;;;;;;;;;4925793;29;20039;-70
2023/10/17 15:02:51;;;;;;;15.68;6.43;;;;;;;;;;4917158;29;20415;-71
2023/10/17 15:06:32;;;;;;;13.07;6.32;;;;;;;;;;4921663;29;20051;-73
2023/10/17 15:10:13;;;;;;;12.52;5.53;;;;;;;;;;4921195;29;20079;-70
2023/10/17 15:13:55;;;;;;;22.77;6.38;;;;;;;;;;4918598;29;20056;-72
2023/10/17 15:17:35;;;;;;;20.17;7.00;;;;;;;;;;4919615;29;20044;-75
2023/10/17 15:21:22;;;;;;;13.15;6.15;;;;;;;;;;4926925;29;20082;-74
2023/10/17 15:25:03;;;;;;;19.42;6.72;;;;;;;;;;4923854;29;20055;-75
2023/10/17 15:28:44;;;;;;;16.67;6.63;;;;;;;;;;4925592;29;20122;-72
2023/10/17 15:32:24;;;;;;;17.92;6.00;;;;;;;;;;4927162;29;20074;-76
2023/10/17 15:36:04;;;;;;;12.80;6.10;;;;;;;;;;4929153;29;20723;-73
2023/10/17 15:38:33;;;;;;;14.70;7.10;;;;;;;;;;4924783;29;20055;-73
2023/10/17 15:41:02;;;;;;;15.23;6.70;;;;;;;;;;4932059;29;20044;-73
2023/10/17 15:43:31;;;;;;;17.80;7.10;;;;;;;;;;4904601;29;20114;-74
2023/10/17 15:45:59;;;;;;;14.82;6.07;;;;;;;;;;4922588;29;20045;-75
2023/10/17 15:48:26;;;;;;;15.18;6.32;;;;;;;;;;4926463;29;20411;-74
2023/10/17 15:50:56;;;;;;;12.60;5.78;;;;;;;;;;4927047;29;20047;-73
2023/10/17 15:53:28;;;;;;;12.60;5.88;;;;;;;;;;4929712;29;20107;-75
2023/10/17 15:56:00;;;;;;;16.70;6.10;;;;;;;;;;4926682;29;20075;-75
2023/10/17 15:58:29;;;;;;;14.75;8.50;;;;;;;;;;4915157;29;20051;-74
2023/10/17 16:00:56;;;;;;;14.43;6.60;;;;;;;;;;4916300;29;20063;-75
2023/10/17 16:03:24;;;;;;;11.73;6.93;;;;;;;;;;4921608;29;20046;-75
2023/10/17 16:05:51;;;;;;;18.00;5.88;;;;;;;;;;4924274;29;20056;-75
2023/10/17 16:08:20;;;;;;;11.55;5.63;;;;;;;;;;4928433;29;20053;-74
2023/10/17 16:10:49;;;;;;;11.23;5.80;;;;;;;;;;4926137;29;20403;-76
2023/10/17 16:13:23;;;;;;;13.02;4.90;;;;;;;;;;4943261;29;20051;-76
2023/10/17 16:15:58;;;;;;;16.35;5.80;;;;;;;;;;4924826;29;20457;-73
2023/10/17 16:18:25;;;;;;;19.33;6.00;;;;;;;;;;4945561;29;20729;-74
2023/10/17 16:20:51;;;;;;;12.20;4.93;;;;;;;;;;4960707;29;20047;-74
2023/10/17 16:23:17;;;;;;;18.50;5.82;;;;;;;;;;4922595;29;20079;-74
2023/10/17 16:25:48;;;;;;;18.30;5.30;;;;;;;;;;4917429;29;20342;-74
2023/10/17 16:28:17;;;;;;;13.55;5.70;;;;;;;;;;4919859;29;20046;-76
2023/10/17 16:30:43;;;;;;;14.82;5.68;;;;;;;;;;4923950;29;20080;-78
2023/10/17 16:33:12;;;;;;;19.55;5.85;;;;;;;;;;4924162;29;20063;-77
2023/10/17 16:35:44;;;;;;;12.20;4.82;;;;;;;;;;4930500;29;20474;-75
2023/10/17 16:38:14;;;;;;;15.93;4.80;;;;;;;;;;4912924;29;20878;-75
2023/10/17 16:40:44;;;;;;;15.30;5.57;;;;;;;;;;4924113;29;20048;-75
2023/10/17 16:43:14;;;;;;;15.77;5.70;;;;;;;;;;4926394;29;20420;-75
2023/10/17 16:45:51;;;;;;;17.48;5.43;;;;;;;;;;4925318;29;20058;-74
2023/10/17 16:48:19;;;;;;;14.07;4.95;;;;;;;;;;4934442;29;20055;-73
2023/10/17 16:50:49;;;;;;;11.98;5.03;;;;;;;;;;4928072;29;20060;-74
2023/10/17 16:53:17;;;;;;;12.80;4.85;;;;;;;;;;4931967;29;20047;-73
2023/10/17 16:55:43;;;;;;;16.17;5.25;;;;;;;;;;4897260;29;20060;-74
2023/10/17 16:58:16;;;;;;;17.48;5.40;;;;;;;;;;4911457;29;20050;-75
2023/10/17 17:00:43;;;;;;;15.02;4.82;;;;;;;;;;4921610;29;20139;-75
2023/10/17 17:03:11;;;;;;;13.32;5.72;;;;;;;;;;4936130;29;20646;-78
2023/10/17 17:05:38;;;;;;;14.50;5.00;;;;;;;;;;4926611;29;20504;-74
2023/10/17 17:08:09;;;;;;;18.02;5.45;;;;;;;;;;4915902;29;20100;-74
2023/10/17 17:10:42;;;;;;;13.25;5.57;;;;;;;;;;4937764;29;20172;-73
2023/10/17 17:13:11;;;;;;;22.52;5.85;;;;;;;;;;4909119;29;20059;-74
2023/10/17 17:15:37;;;;;;;16.92;6.07;;;;;;;;;;4937981;29;20051;-75
2023/10/17 17:18:05;;;;;;;15.48;5.93;;;;;;;;;;4911981;29;20382;-74
2023/10/17 17:20:31;;;;;;;14.43;5.35;;;;;;;;;;4947066;29;20126;-75
2023/10/17 17:22:58;;;;;;;16.67;5.63;;;;;;;;;;4938040;29;20051;-75
2023/10/17 17:25:27;;;;;;;16.00;5.65;;;;;;;;;;4913272;29;20123;-75
2023/10/17 17:27:56;;;;;;;18.10;6.25;;;;;;;;;;4926577;29;20146;-74
2023/10/17 17:30:23;;;;;;;14.98;5.82;;;;;;;;;;4936193;29;20060;-75
2023/10/17 17:32:51;;;;;;;15.15;5.82;;;;;;;;;;4913039;29;20598;-77
2023/10/17 17:35:21;;;;;;;17.55;5.95;;;;;;;;;;4919129;29;20052;-70
2023/10/17 17:37:48;;;;;;;18.35;5.55;;;;;;;;;;4932393;29;20488;-77
2023/10/17 17:40:54;;;;;;;16.13;5.90;;;;;;;;;;4937133;29;20303;-77
2023/10/17 17:44:36;;;;;;;16.38;6.13;;;;;;;;;;4930864;29;20461;-74
2023/10/17 17:48:17;;;;;;;13.85;5.72;;;;;;;;;;4927632;29;20051;-74
2023/10/17 17:51:17;;;;;;;15.65;6.13;;;;;;;;;;4921289;29;20163;-74
2023/10/17 17:53:47;;;;;;;16.45;6.05;;;;;;;;;;4904524;29;20055;-81
2023/10/17 17:56:15;;;;;;;14.98;6.00;;;;;;;;;;4930044;29;20052;-77
2023/10/17 17:58:41;;;;;;;21.70;6.07;;;;;;;;;;4914107;29;20130;-74
2023/10/17 18:01:11;;;;;;;18.95;6.05;;;;;;;;;;4926778;29;20072;-73
2023/10/17 18:03:48;;;;;;;15.43;5.65;;;;;;;;;;4920663;29;20413;-78
2023/10/17 18:06:17;;;;;;;14.88;6.38;;;;;;;;;;4922818;29;20054;-76
2023/10/17 18:08:44;;;;;;;14.45;6.22;;;;;;;;;;4929576;29;20058;-79
2023/10/17 18:11:12;;;;;;;17.30;7.03;;;;;;;;;;4928189;29;20071;-74
2023/10/17 18:13:39;;;;;;;15.80;5.93;;;;;;;;;;4904116;29;20134;-74
2023/10/17 18:16:05;;;;;;;20.27;6.53;;;;;;;;;;4922423;29;20496;-73
2023/10/17 18:18:33;;;;;;;17.63;6.68;;;;;;;;;;4922528;29;20055;-71
2023/10/17 18:21:09;;;;;;;17.20;6.78;;;;;;;;;;4923977;29;20119;-74
2023/10/17 18:23:37;;;;;;;22.00;6.68;;;;;;;;;;4921495;29;20071;-74
2023/10/17 18:26:05;;;;;;;18.05;6.70;;;;;;;;;;4922466;29;20063;-76
2023/10/17 18:28:33;;;;;;;18.58;6.57;;;;;;;;;;4921962;29;20059;-75
2023/10/17 18:31:14;;;;;;;17.83;6.20;;;;;;;;;;4917324;29;20063;-77
2023/10/17 18:33:46;;;;;;;18.92;6.18;;;;;;;;;;4921557;29;20122;-80
2023/10/17 18:36:51;;;;;;;21.08;6.75;;;;;;;;;;5017745;23;20115;-75
2023/10/17 18:40:32;;;;;;;22.70;7.07;;;;;;;;;;4917290;29;20762;-78